Time;durP1;ratioP1;P1;durP2;ratioP2;P2;SDS_P1;SDS_P2;PMS_P1;PMS_P2;Temp;Humidity;BMP_temperature;BMP_pressure;BME280_temperature;BME280_humidity;BME280_pressure;Samples;Min_cycle;Max_cycle;Signal;HPM_P1;HPM_P2
2021/12/14 17:22:46;;;;;;;;;;;9.00;99.90;;;;;;5084024;28;19916;-66
2021/12/14 17:25:16;;;;;;;;;;;9.00;99.90;;;;;;5050065;28;20142;-68
2021/12/14 17:27:43;;;;;;;;;;;9.10;99.90;;;;;;5049039;28;19964;-68
2021/12/14 17:30:12;;;;;;;;;;;8.90;99.90;;;;;;5049633;28;19937;-68
2021/12/14 17:32:38;;;;;;;;;;;;;;;;;;5050281;28;19932;-68
2021/12/14 17:35:27;;;;;;;;;;;9.00;99.90;;;;;;5048282;28;20341;-68
2021/12/14 17:37:53;;;;;;;;;;;8.90;99.90;;;;;;5043366;28;19932;-68
2021/12/14 17:40:24;;;;;;;;;;;9.00;99.90;;;;;;5050057;28;19921;-68
2021/12/14 17:42:52;;;;;;;;;;;9.00;99.90;;;;;;5050088;28;19960;-68
2021/12/14 17:45:30;;;;;;;;;;;8.90;99.90;;;;;;5049397;28;19909;-68
2021/12/14 17:47:57;;;;;;;;;;;8.90;99.90;;;;;;5044681;28;19928;-69
2021/12/14 17:50:29;;;;;;;;;;;9.00;99.90;;;;;;5038493;28;19925;-68
2021/12/14 17:52:55;;;;;;;;;;;;;;;;;;5049314;28;20357;-70
2021/12/14 17:55:21;;;;;;;;;;;8.90;99.90;;;;;;5049803;28;19916;-68
2021/12/14 17:57:52;;;;;;;;;;;8.90;99.90;;;;;;5039994;28;19920;-68
2021/12/14 18:00:21;;;;;;;;;;;9.00;99.90;;;;;;5048656;28;19921;-68
2021/12/14 18:02:48;;;;;;;;;;;9.00;99.90;;;;;;5049179;28;19909;-68
2021/12/14 18:05:23;;;;;;;;;;;9.00;99.90;;;;;;5048983;28;19948;-68
2021/12/14 18:07:50;;;;;;;;;;;9.00;99.90;;;;;;5049569;28;19955;-68
2021/12/14 18:10:18;;;;;;;;;;;9.00;99.90;;;;;;5048898;28;20004;-69
2021/12/14 18:12:45;;;;;;;;;;;8.90;99.90;;;;;;5049511;28;19909;-68
2021/12/14 18:15:11;;;;;;;;;;;8.80;99.90;;;;;;5042393;28;19913;-68
2021/12/14 18:17:53;;;;;;;;;;;8.90;99.90;;;;;;5047420;28;19916;-69
2021/12/14 18:20:22;;;;;;;;;;;8.90;99.90;;;;;;5045486;28;19928;-69
2021/12/14 18:22:47;;;;;;;;;;;8.90;99.90;;;;;;5060932;28;19919;-68
2021/12/14 18:25:14;;;;;;;;;;;9.00;99.90;;;;;;5065115;28;20378;-68
2021/12/14 18:27:42;;;;;;;;;;;8.90;99.90;;;;;;5053093;28;19947;-68
2021/12/14 18:30:13;;;;;;;;;;;9.00;99.90;;;;;;5054937;28;20022;-68
2021/12/14 18:32:40;;;;;;;;;;;8.90;99.90;;;;;;5028029;28;19936;-68
2021/12/14 18:35:10;;;;;;;;;;;8.90;99.90;;;;;;5046611;28;19916;-69
2021/12/14 18:37:37;;;;;;;;;;;8.90;99.90;;;;;;5046865;28;19983;-68
2021/12/14 18:40:23;;;;;;;;;;;8.90;99.90;;;;;;5034787;28;19917;-69
2021/12/14 18:42:49;;;;;;;;;;;8.90;99.90;;;;;;5045248;28;20021;-68
2021/12/14 18:45:15;;;;;;;;;;;8.90;99.90;;;;;;5043104;28;19941;-69
2021/12/14 18:50:48;;;;;;;;;;;8.90;99.90;;;;;;5043188;28;19917;-69
2021/12/14 18:53:14;;;;;;;;;;;;;;;;;;4966729;28;20468;-69
2021/12/14 18:55:45;;;;;;;;;;;8.90;99.90;;;;;;4972942;28;19914;-69
2021/12/14 18:58:20;;;;;;;;;;;9.00;99.90;;;;;;5006975;28;19959;-70
2021/12/14 19:00:56;;;;;;;;;;;8.90;99.90;;;;;;5043687;28;19917;-69
2021/12/14 19:03:27;;;;;;;;;;;8.90;99.90;;;;;;5043511;28;20354;-70
2021/12/14 19:05:55;;;;;;;;;;;8.90;99.90;;;;;;5022319;28;19920;-69
2021/12/14 19:08:24;;;;;;;;;;;8.90;99.90;;;;;;5044777;28;19920;-69
2021/12/14 19:10:55;;;;;;;;;;;8.90;99.90;;;;;;5049009;28;19913;-69
2021/12/14 19:13:24;;;;;;;;;;;9.00;99.90;;;;;;5024861;28;19910;-69
2021/12/14 19:15:50;;;;;;;;;;;9.10;99.90;;;;;;5038807;28;19974;-69
2021/12/14 19:18:16;;;;;;;;;;;9.10;99.90;;;;;;5033720;28;19996;-69
2021/12/14 19:21:02;;;;;;;;;;;9.10;99.90;;;;;;5018784;28;19983;-69
2021/12/14 19:23:33;;;;;;;;;;;9.00;99.90;;;;;;5042575;28;19925;-68
2021/12/14 19:25:59;;;;;;;;;;;;;;;;;;5053908;28;19921;-75
2021/12/14 19:28:25;;;;;;;;;;;9.10;99.90;;;;;;5044487;28;20355;-69
2021/12/14 19:30:55;;;;;;;;;;;9.10;99.90;;;;;;5036314;28;20331;-69
2021/12/14 19:33:21;;;;;;;;;;;;;;;;;;5050886;28;19912;-69
2021/12/14 19:35:47;;;;;;;;;;;9.10;99.90;;;;;;5025317;28;19963;-69
2021/12/14 19:38:14;;;;;;;;;;;9.00;99.90;;;;;;5017647;28;19909;-69
2021/12/14 19:40:56;;;;;;;;;;;9.10;99.90;;;;;;5048543;28;19927;-69
2021/12/14 19:43:34;;;;;;;;;;;9.20;99.90;;;;;;5045042;28;19919;-69
2021/12/14 19:46:00;;;;;;;;;;;;;;;;;;5043757;28;19924;-74
2021/12/14 19:48:30;;;;;;;;;;;9.20;99.90;;;;;;5054568;28;19909;-69
2021/12/14 19:50:58;;;;;;;;;;;9.10;99.90;;;;;;5054642;28;20353;-69
2021/12/14 19:53:28;;;;;;;;;;;9.20;99.90;;;;;;5052820;28;19996;-69
2021/12/14 19:55:55;;;;;;;;;;;9.20;99.90;;;;;;5051799;28;20011;-69
2021/12/14 19:58:22;;;;;;;;;;;9.30;99.90;;;;;;5031012;28;19961;-69
2021/12/14 20:00:48;;;;;;;;;;;;;;;;;;5046079;28;20304;-69
2021/12/14 20:03:19;;;;;;;;;;;9.20;99.90;;;;;;5044300;28;19913;-69
2021/12/14 20:05:46;;;;;;;;;;;9.20;99.90;;;;;;5040793;28;19917;-69
2021/12/14 20:08:20;;;;;;;;;;;9.20;99.90;;;;;;5037831;28;19912;-69
2021/12/14 20:10:58;;;;;;;;;;;9.20;99.90;;;;;;5035832;28;19940;-67
2021/12/14 20:13:25;;;;;;;;;;;9.20;99.90;;;;;;5035953;28;19917;-68
2021/12/14 20:15:53;;;;;;;;;;;9.20;99.90;;;;;;5042663;28;19959;-67
2021/12/14 20:18:30;;;;;;;;;;;9.20;99.90;;;;;;5041516;28;19913;-67
2021/12/14 20:21:04;;;;;;;;;;;9.30;99.90;;;;;;5040614;28;19951;-68
2021/12/14 20:23:32;;;;;;;;;;;9.30;99.90;;;;;;5046412;28;19913;-68
2021/12/14 20:26:00;;;;;;;;;;;9.40;99.90;;;;;;5043089;28;19913;-68
2021/12/14 20:28:28;;;;;;;;;;;9.40;99.90;;;;;;5033519;28;19952;-67
2021/12/14 20:30:56;;;;;;;;;;;9.50;99.90;;;;;;5052578;28;19913;-67
2021/12/14 20:33:36;;;;;;;;;;;9.50;99.90;;;;;;5045312;28;19919;-67
2021/12/14 20:36:04;;;;;;;;;;;9.50;99.90;;;;;;5040976;28;19913;-67
2021/12/14 20:38:31;;;;;;;;;;;9.40;99.90;;;;;;5041679;28;19917;-67
2021/12/14 20:40:57;;;;;;;;;;;9.30;99.90;;;;;;5022825;28;19972;-68
2021/12/14 20:44:04;;;;;;;;;;;9.30;99.90;;;;;;5042143;28;20005;-68
2021/12/14 20:46:22;;;;;;;;;;;9.40;99.90;;;;;;5040088;28;19913;-68
2021/12/14 20:48:52;;;;;;;;;;;9.40;99.90;;;;;;5037293;28;19920;-68
2021/12/14 20:51:22;;;;;;;;;;;9.30;99.90;;;;;;5040841;28;19917;-68
2021/12/14 20:53:50;;;;;;;;;;;9.30;99.90;;;;;;5045355;28;19913;-67
2021/12/14 20:56:16;;;;;;;;;;;9.30;99.90;;;;;;5041338;28;19913;-68
2021/12/14 20:58:53;;;;;;;;;;;;;;;;;;5040797;28;19921;-69
2021/12/14 21:01:25;;;;;;;;;;;9.30;99.90;;;;;;5023069;28;19916;-67
2021/12/14 21:04:14;;;;;;;;;;;9.40;99.90;;;;;;5032760;28;19916;-67
2021/12/14 21:06:54;;;;;;;;;;;9.40;99.90;;;;;;5022030;28;19913;-67
2021/12/14 21:09:31;;;;;;;;;;;9.50;99.90;;;;;;5031943;28;19920;-67
2021/12/14 21:11:58;;;;;;;;;;;9.40;99.90;;;;;;5016408;28;19920;-67
2021/12/14 21:14:31;;;;;;;;;;;9.30;99.90;;;;;;5041091;28;19909;-67
2021/12/14 21:16:57;;;;;;;;;;;9.40;99.90;;;;;;5040567;28;19917;-67
2021/12/14 21:19:28;;;;;;;;;;;9.30;99.90;;;;;;5041578;28;19963;-67
2021/12/14 21:21:55;;;;;;;;;;;9.30;99.90;;;;;;5044107;28;20281;-67
2021/12/14 21:24:23;;;;;;;;;;;9.20;99.90;;;;;;5040506;28;19914;-67
2021/12/14 21:26:49;;;;;;;;;;;9.20;99.90;;;;;;5040984;28;20380;-68
2021/12/14 21:29:15;;;;;;;;;;;9.20;99.90;;;;;;5041975;28;19908;-67
2021/12/14 21:31:42;;;;;;;;;;;9.20;99.90;;;;;;5024771;28;19954;-67
2021/12/14 21:34:08;;;;;;;;;;;;;;;;;;5042569;28;19952;-72
2021/12/14 21:36:33;;;;;;;;;;;9.20;99.90;;;;;;5037129;28;19913;-67
2021/12/14 21:38:59;;;;;;;;;;;9.10;99.90;;;;;;5031893;28;19995;-67
2021/12/14 21:41:39;;;;;;;;;;;9.20;99.90;;;;;;5031919;28;20015;-67
2021/12/14 21:46:49;;;;;;;;;;;9.30;99.90;;;;;;5032314;28;19913;-67
2021/12/14 21:49:14;;;;;;;;;;;9.40;99.90;;;;;;5031885;28;19909;-67
2021/12/14 21:51:41;;;;;;;;;;;9.30;99.90;;;;;;5031966;28;20292;-67
2021/12/14 21:54:06;;;;;;;;;;;9.30;99.90;;;;;;5041620;28;19917;-67
2021/12/14 21:56:32;;;;;;;;;;;9.30;99.90;;;;;;5050838;28;20245;-67
2021/12/14 21:58:58;;;;;;;;;;;;;;;;;;5048435;28;19931;-68
2021/12/14 22:01:23;;;;;;;;;;;9.30;99.90;;;;;;5049340;28;19917;-67
2021/12/14 22:03:49;;;;;;;;;;;9.30;99.90;;;;;;5034285;28;20428;-67
2021/12/14 22:06:15;;;;;;;;;;;9.20;99.90;;;;;;5050761;28;20030;-67
2021/12/14 22:08:41;;;;;;;;;;;9.20;99.90;;;;;;5055446;28;19971;-67
2021/12/14 22:11:12;;;;;;;;;;;9.20;99.90;;;;;;5055553;28;20426;-67
2021/12/14 22:13:38;;;;;;;;;;;;;;;;;;5056046;28;20448;-67
2021/12/14 22:16:07;;;;;;;;;;;9.30;99.90;;;;;;5055199;28;19940;-67
2021/12/14 22:18:33;;;;;;;;;;;9.30;99.90;;;;;;5021120;28;19917;-67
2021/12/14 22:21:00;;;;;;;;;;;9.30;99.90;;;;;;5035024;28;19932;-67
2021/12/14 22:23:37;;;;;;;;;;;9.30;99.90;;;;;;5035021;28;19909;-67
2021/12/14 22:26:02;;;;;;;;;;;;;;;;;;5035695;28;19999;-68
2021/12/14 22:28:28;;;;;;;;;;;9.30;99.90;;;;;;5034787;28;20348;-68
2021/12/14 22:30:54;;;;;;;;;;;9.30;99.90;;;;;;5035261;28;19955;-67
2021/12/14 22:33:20;;;;;;;;;;;9.20;99.90;;;;;;5017036;28;19921;-67
2021/12/14 22:35:45;;;;;;;;;;;9.20;99.90;;;;;;5035428;28;19909;-67
2021/12/14 22:38:14;;;;;;;;;;;;;;;;;;5035608;28;19910;-73
2021/12/14 22:45:40;;;;;;;;;;;9.20;99.90;;;;;;5046205;28;20384;-67
2021/12/14 22:48:06;;;;;;;;;;;9.20;99.90;;;;;;5055134;28;19963;-67
2021/12/14 22:50:32;;;;;;;;;;;9.20;99.90;;;;;;5054097;28;19913;-68
2021/12/14 22:52:57;;;;;;;;;;;9.20;99.90;;;;;;5054784;28;20318;-67
2021/12/14 22:55:24;;;;;;;;;;;9.20;99.90;;;;;;5036343;28;20369;-68
2021/12/14 22:57:50;;;;;;;;;;;9.20;99.90;;;;;;5055022;28;19912;-67
2021/12/14 23:00:28;;;;;;;;;;;9.20;99.90;;;;;;5054438;28;19943;-68
2021/12/14 23:02:54;;;;;;;;;;;9.20;99.90;;;;;;5054399;28;19943;-67
2021/12/14 23:05:20;;;;;;;;;;;9.30;99.90;;;;;;5053756;28;19909;-68
2021/12/14 23:07:46;;;;;;;;;;;9.30;99.90;;;;;;5036856;28;19944;-67
2021/12/14 23:10:12;;;;;;;;;;;;;;;;;;5054996;28;19942;-71
2021/12/14 23:12:42;;;;;;;;;;;9.30;99.90;;;;;;5054390;28;19909;-67
2021/12/14 23:15:14;;;;;;;;;;;9.30;99.90;;;;;;5053833;28;19920;-67
2021/12/14 23:18:08;;;;;;;;;;;9.30;99.90;;;;;;5053948;28;19956;-68
2021/12/14 23:20:34;;;;;;;;;;;9.30;99.90;;;;;;5053350;28;19931;-67
2021/12/14 23:23:00;;;;;;;;;;;9.40;99.90;;;;;;5054175;28;20307;-67
2021/12/14 23:25:26;;;;;;;;;;;9.30;99.90;;;;;;5035730;28;19909;-67
2021/12/14 23:27:51;;;;;;;;;;;9.30;99.90;;;;;;5054432;28;20360;-67
2021/12/14 23:30:17;;;;;;;;;;;;;;;;;;5035751;28;19909;-72
2021/12/14 23:32:44;;;;;;;;;;;9.30;99.90;;;;;;5054329;28;19909;-67
2021/12/14 23:35:10;;;;;;;;;;;9.40;99.90;;;;;;5054400;28;19920;-67
2021/12/14 23:37:35;;;;;;;;;;;9.30;99.90;;;;;;5035028;28;20096;-67
2021/12/14 23:40:02;;;;;;;;;;;9.40;99.90;;;;;;5054363;28;20357;-67
2021/12/14 23:42:29;;;;;;;;;;;9.30;99.90;;;;;;5053391;28;20357;-68
2021/12/14 23:44:55;;;;;;;;;;;9.30;99.90;;;;;;5049385;28;19945;-67
2021/12/14 23:47:23;;;;;;;;;;;9.30;99.90;;;;;;5015628;28;20014;-68
2021/12/14 23:49:50;;;;;;;;;;;9.40;99.90;;;;;;5033937;28;20059;-67
2021/12/14 23:52:16;;;;;;;;;;;;;;;;;;5033731;28;20358;-72
2021/12/14 23:54:42;;;;;;;;;;;9.30;99.90;;;;;;5033679;28;19916;-67
2021/12/14 23:57:09;;;;;;;;;;;9.30;99.90;;;;;;5033726;28;20308;-67
2021/12/14 23:59:35;;;;;;;;;;;9.40;99.90;;;;;;5038308;28;19912;-67
